Time;durP1;ratioP1;P1;durP2;ratioP2;P2;SDS_P1;SDS_P2;PMS_P1;PMS_P2;Temp;Humidity;BMP_temperature;BMP_pressure;BME280_temperature;BME280_humidity;BME280_pressure;Samples;Min_cycle;Max_cycle;Signal;HPM_P1;HPM_P2
2022/09/28 00:01:42;;;;;;;0.05;0.05;;;21.20;70.30;;;;;;5136566;27;46517;-73
2022/09/28 00:04:09;;;;;;;0.10;0.10;;;21.20;70.20;;;;;;5130947;27;45445;-73
2022/09/28 00:06:38;;;;;;;0.57;0.30;;;21.20;70.20;;;;;;5139534;27;45334;-73
2022/09/28 00:09:05;;;;;;;0.17;0.10;;;21.20;70.10;;;;;;5128674;27;45435;-73
2022/09/28 00:11:32;;;;;;;0.10;0.10;;;21.20;70.10;;;;;;5139104;27;48352;-73
2022/09/28 00:14:02;;;;;;;0.10;0.10;;;21.20;70.10;;;;;;5139904;27;45963;-73
2022/09/28 00:16:31;;;;;;;0.28;0.20;;;21.20;70.10;;;;;;5139384;27;45495;-73
2022/09/28 00:18:58;;;;;;;0.10;0.10;;;21.20;70.10;;;;;;5130249;27;45424;-72
2022/09/28 00:21:28;;;;;;;0.38;0.20;;;21.20;70.10;;;;;;5139284;27;46399;-72
2022/09/28 00:24:17;;;;;;;0.20;0.20;;;21.20;70.20;;;;;;5144667;27;45436;-73
2022/09/28 00:26:47;;;;;;;0.47;0.10;;;21.20;70.30;;;;;;5145216;27;45396;-73
2022/09/28 00:29:17;;;;;;;0.10;0.10;;;21.20;70.20;;;;;;5144978;27;45246;-73
2022/09/28 00:31:44;;;;;;;1.13;0.20;;;21.20;70.10;;;;;;5136870;27;45279;-73
2022/09/28 00:34:11;;;;;;;0.20;0.20;;;21.20;70.20;;;;;;5135040;27;45339;-73
2022/09/28 00:36:38;;;;;;;0.95;0.10;;;21.20;70.20;;;;;;5135982;27;45391;-73
2022/09/28 00:39:08;;;;;;;0.10;0.10;;;21.10;70.10;;;;;;5134930;27;45306;-73
2022/09/28 00:41:35;;;;;;;0.10;0.10;;;21.10;70.10;;;;;;5142147;27;48328;-73
2022/09/28 00:44:35;;;;;;;0.22;0.20;;;21.10;70.00;;;;;;5130176;27;45449;-73
2022/09/28 00:47:08;;;;;;;0.25;0.13;;;21.10;70.00;;;;;;5133988;27;45266;-73
2022/09/28 00:49:42;;;;;;;0.10;0.10;;;21.10;70.00;;;;;;5127657;27;45366;-73
2022/09/28 00:52:13;;;;;;;0.25;0.10;;;21.10;70.00;;;;;;5138445;27;46254;-73
2022/09/28 00:54:43;;;;;;;0.08;0.08;;;21.10;70.00;;;;;;5141055;27;45437;-73
2022/09/28 00:57:11;;;;;;;0.10;0.10;;;21.10;70.00;;;;;;5141332;27;45371;-74
2022/09/28 00:59:38;;;;;;;0.40;0.20;;;21.10;70.00;;;;;;5147096;27;45386;-73
2022/09/28 01:02:04;;;;;;;1.10;0.28;;;21.10;70.10;;;;;;5132532;27;46330;-73
2022/09/28 01:04:31;;;;;;;0.25;0.20;;;21.20;70.20;;;;;;5137382;27;45350;-73
2022/09/28 01:07:00;;;;;;;0.30;0.10;;;21.10;70.10;;;;;;5141721;27;45345;-73
2022/09/28 01:09:28;;;;;;;0.15;0.10;;;21.10;70.10;;;;;;5142739;27;45529;-73
2022/09/28 01:11:56;;;;;;;0.10;0.10;;;21.10;70.10;;;;;;5145446;27;46702;-72
2022/09/28 01:14:25;;;;;;;0.55;0.30;;;21.10;70.10;;;;;;5134834;27;45378;-73
2022/09/28 01:17:00;;;;;;;0.10;0.10;;;21.10;70.10;;;;;;5142919;27;45417;-72
2022/09/28 01:19:47;;;;;;;0.30;0.10;;;21.10;70.00;;;;;;5137871;27;45509;-73
2022/09/28 01:22:28;;;;;;;0.10;0.10;;;21.10;70.00;;;;;;5143718;27;47807;-73
2022/09/28 01:25:06;;;;;;;0.47;0.20;;;21.10;70.00;;;;;;5141269;27;45301;-72
2022/09/28 01:27:39;;;;;;;0.10;0.10;;;21.10;70.00;;;;;;5142247;27;45630;-73
2022/09/28 01:30:08;;;;;;;0.25;0.10;;;21.10;70.10;;;;;;5139830;27;45442;-73
2022/09/28 01:32:44;;;;;;;0.20;0.10;;;21.10;70.10;;;;;;5138175;27;45209;-73
2022/09/28 01:35:15;;;;;;;0.20;0.20;;;21.10;71.00;;;;;;5143219;27;45389;-72
2022/09/28 01:37:52;;;;;;;0.63;0.10;;;21.10;70.00;;;;;;5141589;27;45487;-73
2022/09/28 01:40:21;;;;;;;0.00;0.00;;;21.10;70.00;;;;;;5139430;27;45379;-73
2022/09/28 01:42:53;;;;;;;0.10;0.10;;;21.10;70.00;;;;;;5134592;27;45407;-73
2022/09/28 01:45:24;;;;;;;0.10;0.10;;;21.10;70.10;;;;;;5131550;27;45267;-73
2022/09/28 01:47:54;;;;;;;0.57;0.20;;;21.10;70.00;;;;;;5139219;27;45213;-73
2022/09/28 01:50:23;;;;;;;0.10;0.10;;;21.10;70.00;;;;;;5145082;27;45360;-73
2022/09/28 01:52:55;;;;;;;0.50;0.20;;;21.10;70.00;;;;;;5140804;27;46559;-73
2022/09/28 01:55:29;;;;;;;0.10;0.10;;;21.10;69.90;;;;;;5130891;27;45332;-72
2022/09/28 01:58:02;;;;;;;0.00;0.00;;;21.10;69.80;;;;;;5129240;27;45415;-73
2022/09/28 02:00:29;;;;;;;0.30;0.10;;;21.10;69.80;;;;;;5140108;27;45501;-73
2022/09/28 02:03:01;;;;;;;0.20;0.20;;;21.10;69.80;;;;;;5127123;27;45473;-73
2022/09/28 02:05:32;;;;;;;0.15;0.05;;;21.10;69.80;;;;;;5135422;27;45205;-73
2022/09/28 02:08:04;;;;;;;0.10;0.10;;;21.10;69.90;;;;;;5141682;27;45457;-73
2022/09/28 02:10:37;;;;;;;0.25;0.20;;;21.10;69.90;;;;;;5140060;27;45297;-73
2022/09/28 02:13:12;;;;;;;0.30;0.15;;;21.10;70.00;;;;;;5143824;27;46069;-73
2022/09/28 02:15:45;;;;;;;0.45;0.22;;;21.10;70.00;;;;;;5138071;27;45364;-72
2022/09/28 02:18:13;;;;;;;0.25;0.10;;;21.10;70.00;;;;;;5137839;27;45414;-73
2022/09/28 02:20:42;;;;;;;0.25;0.20;;;21.10;70.10;;;;;;5145352;27;45522;-73
2022/09/28 02:23:10;;;;;;;0.25;0.17;;;21.10;70.10;;;;;;5138837;27;45332;-73
2022/09/28 02:25:42;;;;;;;0.20;0.20;;;21.10;70.10;;;;;;5127756;27;45362;-73
2022/09/28 02:28:13;;;;;;;0.30;0.28;;;21.10;70.10;;;;;;5142104;27;45502;-73
2022/09/28 02:30:42;;;;;;;0.17;0.13;;;21.10;70.00;;;;;;5140818;27;45287;-73
2022/09/28 02:33:13;;;;;;;0.10;0.08;;;21.10;70.00;;;;;;5145111;27;48410;-73
2022/09/28 02:35:41;;;;;;;0.28;0.20;;;21.10;70.00;;;;;;5143100;27;45884;-72
2022/09/28 02:38:10;;;;;;;0.55;0.20;;;21.10;69.90;;;;;;5132118;27;45358;-73
2022/09/28 02:40:37;;;;;;;0.52;0.20;;;21.10;69.70;;;;;;5143197;27;45383;-73
2022/09/28 02:43:13;;;;;;;0.32;0.22;;;21.10;69.70;;;;;;5139359;27;46552;-72
2022/09/28 02:45:56;;;;;;;0.10;0.10;;;21.00;69.60;;;;;;5132022;27;45433;-73
2022/09/28 02:48:36;;;;;;;0.10;0.10;;;21.00;69.80;;;;;;5145300;27;45306;-73
2022/09/28 02:51:12;;;;;;;0.10;0.10;;;21.00;69.90;;;;;;5144002;27;45455;-73
2022/09/28 02:54:17;;;;;;;0.10;0.10;;;21.00;69.90;;;;;;5138148;27;46408;-73
2022/09/28 02:56:56;;;;;;;0.25;0.20;;;21.00;69.90;;;;;;5054149;28;45386;-73
2022/09/28 02:59:39;;;;;;;0.20;0.20;;;21.00;69.80;;;;;;5136520;27;45225;-72
2022/09/28 03:02:18;;;;;;;0.20;0.20;;;21.10;69.90;;;;;;5131783;27;45304;-72
2022/09/28 03:04:56;;;;;;;0.20;0.20;;;21.10;69.90;;;;;;5143800;27;45376;-73
2022/09/28 03:07:27;;;;;;;0.45;0.30;;;21.00;69.70;;;;;;5135689;27;46307;-73
2022/09/28 03:10:01;;;;;;;0.20;0.17;;;21.10;69.80;;;;;;5126996;27;45311;-73
2022/09/28 03:12:29;;;;;;;0.30;0.30;;;21.10;69.80;;;;;;5137417;27;45444;-72
2022/09/28 03:15:13;;;;;;;0.43;0.20;;;21.10;69.80;;;;;;5143971;27;45791;-73
2022/09/28 03:17:39;;;;;;;0.25;0.25;;;21.10;69.80;;;;;;5136306;27;45277;-73
2022/09/28 03:20:09;;;;;;;0.85;0.30;;;21.00;69.70;;;;;;5141567;27;45243;-72
2022/09/28 03:22:37;;;;;;;0.30;0.20;;;21.10;69.60;;;;;;5142782;27;45318;-73
2022/09/28 03:25:05;;;;;;;0.88;0.30;;;21.00;69.40;;;;;;5140332;27;46379;-73
2022/09/28 03:27:32;;;;;;;0.20;0.20;;;21.00;69.30;;;;;;5135798;27;45312;-73
2022/09/28 03:29:59;;;;;;;0.32;0.30;;;21.00;69.20;;;;;;5138254;27;45403;-73
2022/09/28 03:32:27;;;;;;;0.22;0.20;;;21.00;69.20;;;;;;5126723;27;45395;-72
2022/09/28 03:34:54;;;;;;;1.08;0.30;;;21.00;69.20;;;;;;5139776;27;47464;-73
2022/09/28 03:37:21;;;;;;;0.20;0.20;;;21.10;69.30;;;;;;5142528;27;45361;-73
2022/09/28 03:39:48;;;;;;;0.30;0.30;;;21.10;69.20;;;;;;5139683;27;45461;-72
2022/09/28 03:42:15;;;;;;;0.38;0.28;;;21.00;69.00;;;;;;5143362;27;45480;-73
2022/09/28 03:44:41;;;;;;;0.60;0.43;;;21.00;68.90;;;;;;5135133;27;47971;-72
2022/09/28 03:47:08;;;;;;;0.85;0.32;;;21.00;69.00;;;;;;5139653;27;45367;-73
2022/09/28 03:49:37;;;;;;;0.30;0.30;;;21.00;69.10;;;;;;5145439;27;45441;-73
2022/09/28 03:52:04;;;;;;;0.90;0.30;;;21.00;69.10;;;;;;5137810;27;45538;-72
2022/09/28 03:54:31;;;;;;;1.45;0.40;;;21.00;69.10;;;;;;5146215;27;45424;-73
2022/09/28 03:56:58;;;;;;;0.45;0.45;;;21.00;69.10;;;;;;5143302;27;45538;-73
2022/09/28 03:59:25;;;;;;;0.30;0.30;;;21.00;69.10;;;;;;5143725;27;45356;-73
2022/09/28 04:01:52;;;;;;;0.40;0.32;;;21.00;69.10;;;;;;5138386;27;45377;-73
2022/09/28 04:04:19;;;;;;;0.40;0.30;;;21.00;69.10;;;;;;5134666;27;45325;-73
2022/09/28 04:06:47;;;;;;;0.30;0.30;;;21.00;69.10;;;;;;5144481;27;45525;-72
2022/09/28 04:09:15;;;;;;;0.43;0.30;;;21.00;69.20;;;;;;5146759;27;45232;-74
2022/09/28 04:11:42;;;;;;;0.60;0.40;;;21.00;69.00;;;;;;5145918;27;45753;-73
2022/09/28 04:14:08;;;;;;;0.32;0.32;;;21.00;69.10;;;;;;5140465;27;45425;-73
2022/09/28 04:16:35;;;;;;;0.30;0.30;;;21.00;69.20;;;;;;5135246;27;45488;-73
2022/09/28 04:19:02;;;;;;;0.40;0.40;;;21.00;68.90;;;;;;5133524;27;45466;-72
2022/09/28 04:21:29;;;;;;;0.38;0.30;;;21.00;69.00;;;;;;5133915;27;45585;-72
2022/09/28 04:23:58;;;;;;;0.45;0.45;;;21.00;68.90;;;;;;5136163;27;46195;-72
2022/09/28 04:26:27;;;;;;;0.47;0.30;;;21.00;68.90;;;;;;5144561;27;45492;-72
2022/09/28 04:31:40;;;;;;;0.30;0.30;;;21.00;68.90;;;;;;5132501;27;45320;-73
2022/09/28 04:34:07;;;;;;;0.47;0.40;;;21.00;68.70;;;;;;5139965;27;47367;-73
2022/09/28 04:36:33;;;;;;;0.80;0.47;;;21.00;68.60;;;;;;5141656;27;45398;-73
2022/09/28 04:39:02;;;;;;;0.40;0.40;;;21.00;68.50;;;;;;5137868;27;45272;-72
2022/09/28 04:41:28;;;;;;;0.50;0.45;;;21.00;68.60;;;;;;5143303;27;45298;-73
2022/09/28 04:43:55;;;;;;;0.38;0.38;;;21.00;68.50;;;;;;5145858;27;47555;-73
2022/09/28 04:46:22;;;;;;;0.52;0.38;;;21.00;68.50;;;;;;5138964;27;45355;-73
2022/09/28 04:48:49;;;;;;;0.40;0.30;;;21.00;68.60;;;;;;5142880;27;45543;-73
2022/09/28 04:51:16;;;;;;;0.43;0.40;;;21.00;68.80;;;;;;5146292;27;45417;-73
2022/09/28 04:53:42;;;;;;;0.25;0.25;;;21.00;68.90;;;;;;5139080;27;46510;-73
2022/09/28 04:56:13;;;;;;;0.25;0.25;;;21.00;68.90;;;;;;5144833;27;45250;-73
2022/09/28 04:58:39;;;;;;;0.60;0.38;;;21.00;69.10;;;;;;5138206;27;45425;-73
2022/09/28 05:01:10;;;;;;;0.30;0.30;;;21.00;69.10;;;;;;5136093;27;45540;-73
2022/09/28 05:03:37;;;;;;;0.20;0.20;;;21.00;69.10;;;;;;5144064;27;45315;-73
2022/09/28 05:06:05;;;;;;;0.73;0.30;;;21.00;69.10;;;;;;5141227;27;45410;-72
2022/09/28 05:08:34;;;;;;;2.05;0.50;;;21.00;68.20;;;;;;5142444;27;45381;-73
2022/09/28 05:11:02;;;;;;;1.20;0.60;;;21.00;68.00;;;;;;5131179;27;45522;-73
2022/09/28 05:13:34;;;;;;;0.30;0.30;;;21.00;68.50;;;;;;5128555;27;46418;-73
2022/09/28 05:16:02;;;;;;;0.60;0.30;;;21.00;69.10;;;;;;5136721;27;45486;-74
2022/09/28 05:18:29;;;;;;;0.85;0.40;;;21.00;69.20;;;;;;5138136;27;45451;-73
2022/09/28 05:20:55;;;;;;;0.30;0.30;;;21.00;69.00;;;;;;5139059;27;45397;-74
2022/09/28 05:23:22;;;;;;;0.52;0.30;;;21.00;69.00;;;;;;5142856;27;47063;-73
2022/09/28 05:25:49;;;;;;;0.50;0.30;;;20.90;68.80;;;;;;5146208;27;45376;-73
2022/09/28 05:28:23;;;;;;;0.52;0.32;;;21.00;68.90;;;;;;5132735;27;45532;-72
2022/09/28 05:30:52;;;;;;;0.20;0.20;;;21.00;68.80;;;;;;5132857;27;45570;-72
2022/09/28 05:33:19;;;;;;;0.47;0.30;;;20.90;68.60;;;;;;5137230;27;47276;-72
2022/09/28 05:35:46;;;;;;;0.38;0.25;;;20.90;68.40;;;;;;5133735;27;45457;-72
2022/09/28 05:38:13;;;;;;;0.47;0.43;;;20.90;68.40;;;;;;5135423;27;45466;-72
2022/09/28 05:40:39;;;;;;;0.30;0.30;;;21.00;68.30;;;;;;5140657;27;45460;-73
2022/09/28 05:43:06;;;;;;;0.50;0.30;;;21.00;68.40;;;;;;5135538;27;45373;-73
2022/09/28 05:45:33;;;;;;;0.47;0.40;;;21.00;68.30;;;;;;5142772;27;45889;-72
2022/09/28 05:48:02;;;;;;;0.63;0.30;;;21.00;68.30;;;;;;5143202;27;45726;-73
2022/09/28 05:50:29;;;;;;;1.13;0.30;;;21.00;68.20;;;;;;5136780;27;45502;-73
2022/09/28 05:53:01;;;;;;;0.30;0.30;;;21.00;68.40;;;;;;5138560;27;45329;-72
2022/09/28 05:55:28;;;;;;;0.95;0.35;;;21.00;68.40;;;;;;5132666;27;45407;-72
2022/09/28 05:57:58;;;;;;;0.90;0.15;;;21.00;68.70;;;;;;5144809;27;45372;-72
2022/09/28 06:00:25;;;;;;;0.20;0.20;;;21.00;68.30;;;;;;5127387;27;45458;-73
2022/09/28 06:02:56;;;;;;;0.85;0.38;;;21.00;68.10;;;;;;5138085;27;47086;-72
2022/09/28 06:05:25;;;;;;;0.57;0.30;;;21.00;68.10;;;;;;5143351;27;45512;-72
2022/09/28 06:07:52;;;;;;;1.38;0.30;;;21.00;68.20;;;;;;5137995;27;45356;-72
2022/09/28 06:10:19;;;;;;;0.40;0.20;;;21.00;68.00;;;;;;5135037;27;45995;-72
2022/09/28 06:12:46;;;;;;;0.75;0.40;;;21.00;68.10;;;;;;5138242;27;46538;-73
2022/09/28 06:15:14;;;;;;;0.52;0.30;;;21.00;68.00;;;;;;5139564;27;45499;-74
2022/09/28 06:17:42;;;;;;;0.40;0.30;;;21.00;68.00;;;;;;5138176;27;45534;-73
2022/09/28 06:20:10;;;;;;;0.50;0.25;;;21.00;68.10;;;;;;5142429;27;45720;-74
2022/09/28 06:22:38;;;;;;;0.77;0.30;;;21.00;68.00;;;;;;5134469;27;47387;-72
2022/09/28 06:25:06;;;;;;;0.30;0.30;;;21.00;67.80;;;;;;5125278;27;46084;-73
2022/09/28 06:27:34;;;;;;;0.32;0.30;;;21.00;67.70;;;;;;5140829;27;45530;-73
2022/09/28 06:30:02;;;;;;;1.52;0.40;;;20.90;67.60;;;;;;5140079;27;45656;-73
2022/09/28 06:32:29;;;;;;;0.25;0.25;;;20.90;67.50;;;;;;5134397;27;47305;-73
2022/09/28 06:34:55;;;;;;;0.50;0.30;;;21.00;67.60;;;;;;5134847;27;45595;-73
2022/09/28 06:37:24;;;;;;;0.50;0.40;;;20.90;67.50;;;;;;5132002;27;45500;-73
2022/09/28 06:39:53;;;;;;;0.30;0.30;;;20.90;67.50;;;;;;5142780;27;45445;-72
2022/09/28 06:42:20;;;;;;;0.40;0.20;;;20.90;67.40;;;;;;5140110;27;48485;-73
2022/09/28 06:44:46;;;;;;;0.88;0.20;;;20.90;67.40;;;;;;5131148;27;45322;-73
2022/09/28 06:47:14;;;;;;;0.65;0.30;;;20.90;67.40;;;;;;5142820;27;45334;-73
2022/09/28 06:49:40;;;;;;;0.30;0.30;;;20.90;68.50;;;;;;5145085;27;45425;-73
2022/09/28 06:52:07;;;;;;;0.88;0.40;;;20.90;67.50;;;;;;5129041;27;46709;-73
2022/09/28 06:54:34;;;;;;;1.17;0.40;;;20.90;67.50;;;;;;5123563;27;46122;-73
2022/09/28 06:57:02;;;;;;;1.80;0.38;;;20.90;67.60;;;;;;5140505;27;45436;-72
2022/09/28 06:59:30;;;;;;;0.80;0.40;;;20.90;67.50;;;;;;5128354;27;45301;-72
2022/09/28 07:01:57;;;;;;;0.40;0.40;;;20.90;67.60;;;;;;5140059;27;46407;-72
2022/09/28 07:04:23;;;;;;;0.45;0.30;;;20.90;67.70;;;;;;5141835;27;45349;-73
2022/09/28 07:06:50;;;;;;;0.30;0.30;;;20.90;67.80;;;;;;5140286;27;45558;-72
2022/09/28 07:09:17;;;;;;;0.20;0.20;;;20.90;67.80;;;;;;5135968;27;45322;-72
2022/09/28 07:11:44;;;;;;;0.52;0.32;;;20.90;67.70;;;;;;5144721;27;47522;-73
2022/09/28 07:14:12;;;;;;;0.30;0.30;;;20.90;67.70;;;;;;5142457;27;45299;-72
2022/09/28 07:16:39;;;;;;;0.20;0.15;;;20.90;67.60;;;;;;5142108;27;45480;-72
2022/09/28 07:19:06;;;;;;;0.30;0.20;;;20.90;67.50;;;;;;5144196;27;45381;-73
2022/09/28 07:21:33;;;;;;;0.43;0.22;;;20.90;67.40;;;;;;5142199;27;48451;-73
2022/09/28 07:24:00;;;;;;;0.75;0.25;;;20.90;67.50;;;;;;5141855;27;45733;-73
2022/09/28 07:26:27;;;;;;;0.40;0.30;;;20.90;67.50;;;;;;5137417;27;45550;-73
2022/09/28 07:28:54;;;;;;;0.25;0.25;;;20.90;67.50;;;;;;5143548;27;45437;-73
2022/09/28 07:31:24;;;;;;;0.45;0.40;;;20.90;67.40;;;;;;5139400;27;45443;-73
2022/09/28 07:33:52;;;;;;;1.35;0.35;;;20.90;67.30;;;;;;5145320;27;45377;-73
2022/09/28 07:36:19;;;;;;;1.60;0.50;;;20.90;67.30;;;;;;5147422;27;45429;-72
2022/09/28 07:38:46;;;;;;;0.30;0.30;;;20.90;67.20;;;;;;5137795;27;45597;-73
2022/09/28 07:41:13;;;;;;;2.78;0.40;;;20.90;67.20;;;;;;5142403;27;46865;-72
2022/09/28 07:43:41;;;;;;;0.43;0.30;;;20.90;67.30;;;;;;5147987;27;45263;-72
2022/09/28 07:46:10;;;;;;;0.28;0.28;;;20.90;67.50;;;;;;5140027;27;45278;-72
2022/09/28 07:48:40;;;;;;;0.47;0.30;;;20.90;67.50;;;;;;5141459;27;45379;-73
2022/09/28 07:51:07;;;;;;;0.63;0.38;;;20.90;67.50;;;;;;5129444;27;48504;-73
2022/09/28 07:53:37;;;;;;;0.20;0.10;;;20.90;67.50;;;;;;5139195;27;45312;-75
2022/09/28 07:56:07;;;;;;;0.77;0.40;;;20.90;67.50;;;;;;5140192;27;45330;-73
2022/09/28 07:58:35;;;;;;;0.70;0.30;;;20.90;67.50;;;;;;5136407;27;45355;-73
2022/09/28 08:01:07;;;;;;;0.40;0.25;;;20.90;67.80;;;;;;5137006;27;48154;-74
2022/09/28 08:03:34;;;;;;;0.60;0.40;;;20.90;67.70;;;;;;5136096;27;45440;-73
2022/09/28 08:06:05;;;;;;;0.40;0.30;;;20.90;67.80;;;;;;5142106;27;45545;-73
2022/09/28 08:08:34;;;;;;;0.73;0.30;;;20.90;67.70;;;;;;5145062;27;45282;-72
2022/09/28 08:11:01;;;;;;;0.77;0.30;;;20.90;67.60;;;;;;5146431;27;47285;-73
2022/09/28 08:13:28;;;;;;;0.38;0.20;;;20.90;67.50;;;;;;5147142;27;45339;-72
2022/09/28 08:15:55;;;;;;;0.73;0.30;;;20.90;67.40;;;;;;5147512;27;45498;-73
2022/09/28 08:18:22;;;;;;;0.68;0.20;;;20.90;67.50;;;;;;5142849;27;45676;-72
2022/09/28 08:23:38;;;;;;;0.30;0.20;;;20.90;67.30;;;;;;5131807;27;45561;-73
2022/09/28 08:26:05;;;;;;;0.28;0.15;;;20.90;67.30;;;;;;5145566;27;45284;-72
2022/09/28 08:28:33;;;;;;;1.33;0.40;;;20.90;67.20;;;;;;5136627;27;45552;-73
2022/09/28 08:31:01;;;;;;;0.65;0.20;;;20.90;67.20;;;;;;5142868;27;48624;-73
2022/09/28 08:33:28;;;;;;;0.50;0.30;;;20.90;67.10;;;;;;5136859;27;45921;-72
2022/09/28 08:35:56;;;;;;;1.27;0.30;;;20.90;67.00;;;;;;5140778;27;45371;-72
2022/09/28 08:38:23;;;;;;;0.43;0.35;;;20.90;67.10;;;;;;5146348;27;45352;-72
2022/09/28 08:41:04;;;;;;;0.30;0.30;;;20.90;67.20;;;;;;5145668;27;46414;-72
2022/09/28 08:43:47;;;;;;;0.77;0.22;;;20.90;67.30;;;;;;5135956;27;45358;-73
2022/09/28 08:46:19;;;;;;;0.20;0.20;;;20.90;67.40;;;;;;5144888;27;45249;-72
2022/09/28 08:48:53;;;;;;;0.10;0.10;;;20.90;67.40;;;;;;5146747;27;45390;-73
2022/09/28 08:51:24;;;;;;;0.73;0.35;;;20.90;67.50;;;;;;5144000;27;46053;-72
2022/09/28 08:53:58;;;;;;;0.50;0.30;;;20.90;67.30;;;;;;5137723;27;45386;-72
2022/09/28 08:56:35;;;;;;;0.30;0.30;;;20.90;67.40;;;;;;5145233;27;45328;-73
2022/09/28 08:59:05;;;;;;;0.98;0.35;;;20.90;67.50;;;;;;5140052;27;45427;-72
2022/09/28 09:01:37;;;;;;;0.17;0.15;;;20.90;67.30;;;;;;5137501;27;45342;-73
2022/09/28 09:04:06;;;;;;;0.80;0.20;;;20.90;67.20;;;;;;5144262;27;45607;-72
2022/09/28 09:06:44;;;;;;;0.55;0.30;;;20.90;67.10;;;;;;5137275;27;45353;-73
2022/09/28 09:09:18;;;;;;;1.58;0.20;;;20.90;67.30;;;;;;5126645;27;45402;-73
2022/09/28 09:11:56;;;;;;;0.40;0.20;;;20.90;67.20;;;;;;5134562;27;46074;-72
2022/09/28 09:15:14;;;;;;;0.50;0.30;;;20.90;67.10;;;;;;5136595;27;45335;-75
2022/09/28 09:17:55;;;;;;;0.30;0.20;;;20.90;66.70;;;;;;5055822;28;45405;-72
2022/09/28 09:20:31;;;;;;;0.77;0.20;;;20.90;66.50;;;;;;5132349;27;45523;-73
2022/09/28 09:23:00;;;;;;;0.65;0.30;;;21.00;66.50;;;;;;5145030;27;47386;-73
2022/09/28 09:25:30;;;;;;;1.40;0.20;;;20.90;66.40;;;;;;5144640;27;45265;-72
2022/09/28 09:28:11;;;;;;;0.22;0.13;;;21.00;66.60;;;;;;5136700;27;45395;-72
2022/09/28 09:30:45;;;;;;;1.55;0.40;;;21.00;66.50;;;;;;5136047;27;45340;-75
2022/09/28 09:33:36;;;;;;;0.43;0.30;;;21.00;66.60;;;;;;5143171;27;46571;-72
2022/09/28 09:36:20;;;;;;;0.40;0.20;;;21.00;66.40;;;;;;5132157;27;45493;-72
2022/09/28 09:39:03;;;;;;;0.40;0.20;;;21.00;66.30;;;;;;5133843;27;45331;-72
2022/09/28 09:41:43;;;;;;;0.90;0.30;;;21.00;66.40;;;;;;5134153;27;45491;-73
2022/09/28 09:44:28;;;;;;;0.57;0.20;;;21.00;66.50;;;;;;5135465;27;47949;-73
2022/09/28 09:47:00;;;;;;;0.20;0.20;;;21.00;66.30;;;;;;5148590;27;45307;-71
2022/09/28 09:49:33;;;;;;;0.20;0.10;;;21.00;66.60;;;;;;5142133;27;45627;-72
2022/09/28 09:52:05;;;;;;;1.13;0.30;;;21.10;66.40;;;;;;5144176;27;45346;-73
2022/09/28 09:54:37;;;;;;;0.22;0.13;;;21.00;66.40;;;;;;5137250;27;47404;-72
2022/09/28 09:57:12;;;;;;;0.20;0.20;;;21.00;66.60;;;;;;5144099;27;45307;-73
2022/09/28 09:59:43;;;;;;;0.63;0.20;;;21.00;66.30;;;;;;5128624;27;45399;-71
2022/09/28 10:02:20;;;;;;;0.57;0.30;;;21.00;66.20;;;;;;5133359;27;45541;-72
2022/09/28 10:04:49;;;;;;;0.30;0.30;;;21.00;66.00;;;;;;5137252;27;45479;-72
2022/09/28 10:07:22;;;;;;;0.55;0.30;;;21.00;66.00;;;;;;5145863;27;45739;-72
2022/09/28 10:09:50;;;;;;;1.08;0.20;;;21.00;65.90;;;;;;5147171;27;45205;-72
2022/09/28 10:12:20;;;;;;;0.77;0.30;;;21.00;65.70;;;;;;5138216;27;45377;-72
2022/09/28 10:14:49;;;;;;;0.45;0.28;;;21.00;65.70;;;;;;5134549;27;45556;-71
2022/09/28 10:17:18;;;;;;;41.97;2.35;;;21.00;66.10;;;;;;5141519;27;45205;-67
2022/09/28 10:19:46;;;;;;;13.25;1.48;;;21.10;66.80;;;;;;5144277;27;45328;-68
2022/09/28 10:22:19;;;;;;;5.88;1.02;;;21.10;66.40;;;;;;5127448;27;45377;-69
2022/09/28 10:24:49;;;;;;;4.93;1.00;;;21.00;66.30;;;;;;5134210;27;45328;-68
2022/09/28 10:27:19;;;;;;;3.20;0.52;;;21.10;66.20;;;;;;5129602;27;45382;-67
2022/09/28 10:29:53;;;;;;;3.70;0.65;;;21.00;66.20;;;;;;5138808;27;45439;-68
2022/09/28 10:32:24;;;;;;;1.77;0.50;;;21.00;66.20;;;;;;5138225;27;45509;-67
2022/09/28 10:34:52;;;;;;;5.22;0.75;;;21.00;66.10;;;;;;5140537;27;46067;-68
2022/09/28 10:37:19;;;;;;;1.95;0.50;;;21.10;66.30;;;;;;5140630;27;45432;-68
2022/09/28 10:39:50;;;;;;;3.50;0.30;;;21.10;67.10;;;;;;5137832;27;45326;-68
2022/09/28 10:42:23;;;;;;;1.95;0.50;;;21.00;66.60;;;;;;5139752;27;45488;-69
2022/09/28 10:44:55;;;;;;;1.83;0.45;;;21.10;66.40;;;;;;5136700;27;47047;-69
2022/09/28 10:47:24;;;;;;;2.17;0.50;;;21.00;66.40;;;;;;5129146;27;45592;-69
2022/09/28 10:49:53;;;;;;;2.15;0.40;;;21.00;66.40;;;;;;5133245;27;45391;-68
2022/09/28 10:52:35;;;;;;;0.30;0.28;;;21.00;66.40;;;;;;5131717;27;45451;-68
2022/09/28 10:55:02;;;;;;;1.70;0.35;;;21.00;66.40;;;;;;5125234;27;45239;-68
2022/09/28 10:57:33;;;;;;;0.55;0.40;;;21.00;66.20;;;;;;5137374;27;45279;-68
2022/09/28 11:00:04;;;;;;;2.47;0.30;;;21.00;66.10;;;;;;5144771;27;45336;-68
2022/09/28 11:02:32;;;;;;;1.38;0.22;;;21.00;66.10;;;;;;5131560;27;45379;-68
2022/09/28 11:05:01;;;;;;;1.17;0.20;;;21.10;66.10;;;;;;5131917;27;46612;-69
2022/09/28 11:07:30;;;;;;;2.13;0.30;;;21.00;66.00;;;;;;5141779;27;45396;-68
2022/09/28 11:09:58;;;;;;;0.95;0.20;;;21.00;65.70;;;;;;5141695;27;45462;-68
2022/09/28 11:12:27;;;;;;;0.22;0.20;;;21.00;65.90;;;;;;5146279;27;45458;-69
2022/09/28 11:15:00;;;;;;;0.28;0.13;;;21.00;65.90;;;;;;5138121;27;47142;-69
2022/09/28 11:17:31;;;;;;;1.23;0.28;;;21.00;65.60;;;;;;5138969;27;45889;-68
2022/09/28 11:20:00;;;;;;;0.60;0.25;;;21.00;65.70;;;;;;5142223;27;45350;-68
2022/09/28 11:22:29;;;;;;;0.28;0.20;;;21.10;65.80;;;;;;5142168;27;45274;-68
2022/09/28 11:25:30;;;;;;;0.30;0.10;;;21.10;65.70;;;;;;5142489;27;46246;-69
2022/09/28 11:28:00;;;;;;;0.20;0.20;;;21.10;65.90;;;;;;5047817;28;46074;-68
2022/09/28 11:30:31;;;;;;;0.40;0.22;;;21.10;65.10;;;;;;5049395;28;45618;-68
2022/09/28 11:33:08;;;;;;;0.70;0.20;;;21.10;65.00;;;;;;5093779;27;45508;-68
2022/09/28 11:35:46;;;;;;;3.45;0.40;;;21.10;65.00;;;;;;5138870;27;46353;-68
2022/09/28 11:38:27;;;;;;;0.35;0.25;;;21.20;65.40;;;;;;5145154;27;45328;-68
2022/09/28 11:41:05;;;;;;;0.25;0.20;;;21.10;65.40;;;;;;5134754;27;45576;-67
2022/09/28 11:43:51;;;;;;;1.27;0.40;;;21.10;65.60;;;;;;5139805;27;45519;-69
2022/09/28 11:46:31;;;;;;;0.80;0.30;;;21.20;65.40;;;;;;5145438;27;46628;-68
2022/09/28 11:49:04;;;;;;;0.57;0.25;;;21.20;65.30;;;;;;5143631;27;45337;-68
2022/09/28 11:51:35;;;;;;;0.20;0.20;;;21.10;65.00;;;;;;5127703;27;45280;-67
2022/09/28 11:54:13;;;;;;;0.55;0.20;;;21.10;65.00;;;;;;5144097;27;45554;-68
2022/09/28 11:56:42;;;;;;;0.47;0.20;;;21.10;64.80;;;;;;5147411;27;48850;-68
2022/09/28 11:59:14;;;;;;;0.88;0.32;;;21.10;64.70;;;;;;5150607;27;45479;-68
2022/09/28 12:01:47;;;;;;;0.88;0.20;;;21.10;64.90;;;;;;5151726;27;45359;-69
2022/09/28 12:04:21;;;;;;;0.20;0.20;;;21.10;64.60;;;;;;5152134;27;45478;-68
2022/09/28 12:06:53;;;;;;;0.90;0.35;;;21.10;64.60;;;;;;5147329;27;45516;-69
2022/09/28 12:09:27;;;;;;;0.80;0.20;;;21.10;65.20;;;;;;5150480;27;45436;-68
2022/09/28 12:12:00;;;;;;;0.95;0.20;;;21.10;65.00;;;;;;5141757;27;45384;-68
2022/09/28 12:14:30;;;;;;;0.47;0.20;;;21.10;65.30;;;;;;5126748;27;45573;-67
2022/09/28 12:17:01;;;;;;;0.80;0.20;;;21.10;65.40;;;;;;5137860;27;48414;-69
2022/09/28 12:19:33;;;;;;;0.75;0.25;;;21.10;65.70;;;;;;5137553;27;45342;-68
2022/09/28 12:22:05;;;;;;;0.15;0.15;;;21.10;65.50;;;;;;5133598;27;45418;-68
2022/09/28 12:24:36;;;;;;;1.08;0.20;;;21.10;65.50;;;;;;5135351;27;45439;-68
2022/09/28 12:27:07;;;;;;;0.82;0.30;;;21.10;65.70;;;;;;5128754;27;46075;-69
2022/09/28 12:29:40;;;;;;;2.85;0.52;;;21.10;66.80;;;;;;5139319;27;45426;-69
2022/09/28 12:32:16;;;;;;;2.20;0.30;;;21.10;67.10;;;;;;5130319;27;45570;-69
2022/09/28 12:34:44;;;;;;;1.45;0.40;;;21.10;67.10;;;;;;5138548;27;45438;-68
2022/09/28 12:37:27;;;;;;;2.70;0.40;;;21.20;67.10;;;;;;5128824;27;47597;-68
2022/09/28 12:40:21;;;;;;;4.47;0.45;;;21.10;67.10;;;;;;5134986;27;45590;-69
2022/09/28 12:43:13;;;;;;;0.30;0.10;;;21.10;67.00;;;;;;5139057;27;45317;-70
2022/09/28 12:45:55;;;;;;;1.33;0.32;;;21.20;67.20;;;;;;5134034;27;45443;-70
2022/09/28 12:48:48;;;;;;;0.75;0.30;;;21.20;67.30;;;;;;5133479;27;47994;-69
2022/09/28 12:51:40;;;;;;;2.40;0.60;;;21.10;67.40;;;;;;5126522;27;45297;-69
2022/09/28 12:54:17;;;;;;;0.10;0.10;;;21.10;67.70;;;;;;5144692;27;45353;-69
2022/09/28 12:56:59;;;;;;;0.35;0.20;;;21.10;67.90;;;;;;5140126;27;45583;-69
2022/09/28 12:59:30;;;;;;;0.55;0.20;;;21.10;68.20;;;;;;5139256;27;45503;-68
2022/09/28 13:02:19;;;;;;;0.40;0.30;;;21.10;68.30;;;;;;5142761;27;45330;-69
2022/09/28 13:05:02;;;;;;;0.80;0.30;;;21.10;68.50;;;;;;5130541;27;45413;-69
2022/09/28 13:07:38;;;;;;;0.10;0.10;;;21.10;68.70;;;;;;5136828;27;45519;-68
2022/09/28 13:10:17;;;;;;;0.43;0.20;;;21.10;68.90;;;;;;5134959;27;46338;-68
2022/09/28 13:13:00;;;;;;;0.30;0.30;;;21.10;68.90;;;;;;5144208;27;45388;-69
2022/09/28 13:15:40;;;;;;;0.65;0.28;;;21.10;69.20;;;;;;5129687;27;45318;-68